Cross City, FL

5:06 PM EST on December 08, 2019 (GMT -0500)
Cross City

Weather History for KCTY - October, 2019

Change the Weather History Date:

Saturday, October 26, 2019

  Actual Average Record
Temperature  
Mean Temperature 81 °F 68 °F  
Max Temperature 91 °F 81 °F 87 °F (2010)
Min Temperature 71 °F 54 °F 37 °F (2005)
Degree Days  
Heating Degree Days 0    
Month to date heating degree days 4  
Since 1 July heating degree days 4  
Cooling Degree Days 16    
Month to date cooling degree days 273  
Year to date cooling degree days 3030  
Growing Degree Days 30 (Base 50)    
Moisture  
Dew Point 73 °F    
Average Humidity 84    
Maximum Humidity 98    
Minimum Humidity 51    
Precipitation  
Precipitation 0.00 in 0.08 in 0.22 in (2018)
Month to date precipitation 1.95 2.95  
Year to date precipitation 49.42 42.78  
Sea Level Pressure  
Sea Level Pressure 29.93 in    
Wind  
Wind Speed 7 mph (SE)    
Max Wind Speed 18 mph    
Max Gust Speed 25 mph    
Visibility 10 miles    
Events      
T = Trace of Precipitation, MM = Missing Value Source: NWS Daily Summary

Daily Weather History Graph

Daily Weather History Graph

Search for Another Location

Airport or City:

Astronomy

Oct. 26, 2019 Rise Set
Actual Time 7:41 AM EDT 6:51 PM EDT
Civil Twilight 7:16 AM EDT 7:15 PM EDT
Nautical Twilight 6:48 AM EDT 7:43 PM EDT
Astronomical Twilight 6:21 AM EDT 8:11 PM EDT
Moon 5:50 AM EDT (10/26) 6:14 PM EDT (10/26)
Length of Visible Light 11h 58m
Length of Day
11h 09m
Waning Crescent, 3% of the Moon is Illuminated
Oct 26
Waning Crescent
Oct 27
New
Nov 4
First Quarter
Nov 12
Full
Nov 19
Last Quarter

Hourly Weather History & Observations

Time (EDT) Temp. Heat Index Dew Point Humidity Pressure Visibility Wind Dir Wind Speed Gust Speed Precip Events Conditions
12:15 AM 73.9 °F - 70.7 °F 90% 30.03 in 10.0 mi East 3.5 mph - N/A   Unknown
12:35 AM 73.8 °F - 70.9 °F 91% 30.02 in 10.0 mi East 4.6 mph - N/A   Unknown
12:55 AM 73.6 °F - 71.2 °F 92% 30.02 in 10.0 mi East 3.5 mph - N/A   Unknown
1:15 AM 73.4 °F - 71.6 °F 94% 30.01 in 10.0 mi East 5.8 mph - N/A   Unknown
1:35 AM 73.8 °F - 71.6 °F 93% 30.00 in 10.0 mi East 5.8 mph - N/A   Unknown
1:55 AM 73.8 °F - 71.4 °F 92% 30.00 in 10.0 mi East 4.6 mph - N/A   Unknown
2:15 AM 73.6 °F - 71.2 °F 92% 29.99 in 10.0 mi East 6.9 mph - N/A   Unknown
2:35 AM 73.2 °F - 71.1 °F 93% 29.99 in 10.0 mi East 5.8 mph - N/A   Unknown
2:55 AM 73.2 °F - 71.1 °F 93% 29.98 in 10.0 mi East 4.6 mph - N/A   Unknown
3:15 AM 72.9 °F - 70.7 °F 93% 29.98 in 10.0 mi East 4.6 mph - N/A   Unknown
3:35 AM 72.7 °F - 70.5 °F 93% 29.97 in 10.0 mi East 4.6 mph - N/A   Unknown
3:55 AM 72.5 °F - 70.3 °F 93% 29.96 in 10.0 mi East 5.8 mph - N/A   Unknown
4:15 AM 72.5 °F - 70.3 °F 93% 29.95 in 10.0 mi ESE 5.8 mph - N/A   Unknown
4:35 AM 72.3 °F - 70.0 °F 92% 29.95 in 10.0 mi East 4.6 mph - N/A   Unknown
4:55 AM 72.3 °F - 70.0 °F 92% 29.95 in 10.0 mi East 4.6 mph - N/A   Unknown
5:35 AM 72.3 °F - 69.6 °F 91% 29.95 in 10.0 mi ESE 3.5 mph - N/A   Unknown
5:55 AM 72.0 °F - 69.6 °F 92% 29.95 in 10.0 mi East 3.5 mph - N/A   Unknown
6:15 AM 72.3 °F - 69.8 °F 92% 29.95 in 10.0 mi East 3.5 mph - N/A   Unknown
6:35 AM 72.0 °F - 69.8 °F 93% 29.95 in 10.0 mi East 4.6 mph - N/A   Unknown
6:55 AM 71.8 °F - 69.6 °F 93% 29.94 in 10.0 mi East 4.6 mph - N/A   Unknown
7:15 AM 71.4 °F - 69.6 °F 94% 29.94 in 10.0 mi East 4.6 mph - N/A   Unknown
7:35 AM 71.6 °F - 69.8 °F 94% 29.94 in 10.0 mi East 5.8 mph - N/A   Unknown
7:55 AM 71.6 °F - 69.8 °F 94% 29.94 in 10.0 mi East 5.8 mph - N/A   Unknown
8:15 AM 72.3 °F - 70.3 °F 93% 29.94 in 10.0 mi East 8.1 mph - N/A   Unknown
8:35 AM 73.6 °F - 70.9 °F 91% 29.95 in 10.0 mi ESE 6.9 mph - N/A   Unknown
8:55 AM 74.7 °F - 71.4 °F 90% 29.96 in 10.0 mi ESE 4.6 mph - N/A   Unknown
9:15 AM 75.0 °F - 71.8 °F 90% 29.96 in 10.0 mi SE 8.1 mph - N/A   Unknown
9:35 AM 76.5 °F - 72.5 °F 87% 29.97 in 10.0 mi SE 5.8 mph - N/A   Unknown
9:55 AM 77.5 °F - 73.2 °F 86% 29.97 in 10.0 mi SE 6.9 mph - N/A   Unknown
10:15 AM 78.8 °F - 73.2 °F 83% 29.97 in 10.0 mi SE 6.9 mph - N/A   Unknown
10:35 AM 79.7 °F - 73.6 °F 81% 29.97 in 10.0 mi SE 6.9 mph - N/A   Unknown
11:15 AM 82.4 °F 88.4 °F 73.9 °F 75% 29.96 in 10.0 mi SE 9.2 mph - N/A   Unknown
11:35 AM 83.1 °F 89.5 °F 73.6 °F 73% 29.96 in 10.0 mi SSE 10.4 mph 19.6 mph N/A   Unknown
11:55 AM 84.9 °F 92.1 °F 73.8 °F 69% 29.96 in 10.0 mi SE 8.1 mph - N/A   Unknown
12:15 PM 83.5 °F 90.0 °F 73.6 °F 72% 29.96 in 10.0 mi SSE 8.1 mph - N/A   Unknown
12:35 PM 86.2 °F 93.4 °F 73.2 °F 65% 29.95 in 10.0 mi SSE 9.2 mph 17.3 mph N/A   Unknown
12:55 PM 86.0 °F 93.0 °F 73.2 °F 65% 29.94 in 10.0 mi SE 8.1 mph 16.1 mph N/A   Unknown
1:15 PM 86.2 °F 93.4 °F 73.2 °F 65% 29.93 in 10.0 mi SSE 8.1 mph - N/A   Unknown
1:35 PM 87.1 °F 94.1 °F 72.7 °F 62% 29.92 in 10.0 mi SSE 9.2 mph 18.4 mph N/A   Unknown
1:55 PM 89.1 °F 97.0 °F 73.2 °F 59% 29.91 in 10.0 mi South 12.7 mph 21.9 mph N/A   Unknown
2:15 PM 87.8 °F 94.3 °F 72.0 °F 59% 29.89 in 10.0 mi SSE 12.7 mph 20.7 mph N/A   Unknown
2:35 PM 89.1 °F 96.5 °F 72.7 °F 58% 29.88 in 10.0 mi SSE 13.8 mph 17.3 mph N/A   Unknown
2:55 PM 88.7 °F 95.7 °F 72.3 °F 58% 29.88 in 10.0 mi South 18.4 mph 24.2 mph N/A   Unknown
3:15 PM 86.7 °F 93.3 °F 72.1 °F 62% 29.88 in 10.0 mi South 15.0 mph 20.7 mph N/A   Unknown
3:35 PM 85.3 °F 91.5 °F 72.1 °F 65% 29.87 in 10.0 mi South 10.4 mph - N/A   Unknown
3:55 PM 85.3 °F 91.5 °F 72.3 °F 65% 29.87 in 10.0 mi South 11.5 mph - N/A   Unknown
4:15 PM 85.8 °F 92.6 °F 73.0 °F 65% 29.86 in 10.0 mi South 12.7 mph - N/A   Unknown
4:35 PM 86.2 °F 93.4 °F 73.2 °F 65% 29.85 in 10.0 mi SSE 11.5 mph - N/A   Unknown
4:55 PM 83.8 °F 89.8 °F 72.7 °F 69% 29.86 in 10.0 mi SSW 12.7 mph 25.3 mph N/A   Unknown
5:15 PM 84.7 °F 91.7 °F 73.4 °F 69% 29.87 in 10.0 mi SSW 13.8 mph - N/A   Unknown
5:35 PM 84.0 °F 90.8 °F 73.6 °F 71% 29.87 in 10.0 mi South 11.5 mph 17.3 mph N/A   Unknown
6:15 PM 81.5 °F 87.2 °F 73.9 °F 78% 29.87 in 10.0 mi South 10.4 mph - N/A   Unknown
6:35 PM 80.2 °F 85.0 °F 74.1 °F 82% 29.87 in 10.0 mi South 9.2 mph - N/A   Unknown
6:55 PM 79.5 °F - 74.5 °F 84% 29.89 in 10.0 mi South 9.2 mph - N/A   Unknown
7:15 PM 78.8 °F - 74.7 °F 87% 29.90 in 10.0 mi South 9.2 mph - N/A   Unknown
7:35 PM 78.4 °F - 74.8 °F 89% 29.89 in 10.0 mi South 6.9 mph - N/A   Unknown
7:55 PM 77.9 °F - 75.0 °F 91% 29.90 in 10.0 mi South 4.6 mph - N/A   Unknown
8:15 PM 77.4 °F - 75.0 °F 92% 29.90 in 10.0 mi South 4.6 mph - N/A   Unknown
8:35 PM 76.8 °F - 75.0 °F 94% 29.90 in 10.0 mi SSE 4.6 mph - N/A   Unknown
8:55 PM 76.8 °F - 75.2 °F 95% 29.90 in 10.0 mi SSE 5.8 mph - N/A   Unknown
9:15 PM 76.6 °F - 75.2 °F 95% 29.90 in 10.0 mi SE 3.5 mph - N/A   Unknown
9:35 PM 77.0 °F - 75.2 °F 94% 29.91 in 10.0 mi SE 4.6 mph - N/A   Unknown
9:55 PM 76.1 °F - 75.0 °F 96% 29.91 in 10.0 mi South 4.6 mph - N/A   Unknown
10:15 PM 75.9 °F - 75.0 °F 97% 29.92 in 7.0 mi South 5.8 mph - N/A   Unknown
10:35 PM 75.7 °F - 74.8 °F 97% 29.93 in 7.0 mi South 4.6 mph - N/A   Mist
10:55 PM 75.6 °F - 75.0 °F 98% 29.93 in 5.0 mi SSE 3.5 mph - N/A   Mist
11:15 PM 75.6 °F - 75.0 °F 98% 29.92 in 5.0 mi SSE 4.6 mph - N/A   Mist
11:35 PM 75.7 °F - 75.2 °F 98% 29.93 in 5.0 mi SSE 4.6 mph - N/A   Mist
11:55 PM 75.7 °F - 75.2 °F 98% 29.92 in 5.0 mi SSE 5.8 mph - N/A   Mist